createdAt,value
2018-02-16T00:00:05.139Z,97.64
2018-02-16T00:01:05.149Z,97.48
2018-02-16T00:02:05.122Z,97.72
2018-02-16T00:03:05.246Z,97.29
2018-02-16T00:04:05.151Z,97.24
2018-02-16T00:05:05.130Z,97.75
2018-02-16T00:06:04.978Z,97.72
2018-02-16T00:07:05.144Z,97.73
2018-02-16T00:08:05.315Z,98.08
2018-02-16T00:09:05.165Z,98.26
2018-02-16T00:10:05.004Z,98.27
2018-02-16T00:11:05.015Z,98.22
2018-02-16T00:12:05.006Z,97.99
2018-02-16T00:13:05.040Z,98.43
2018-02-16T00:14:05.173Z,98.3
2018-02-16T00:15:05.036Z,98.14
2018-02-16T00:16:05.036Z,98.15
2018-02-16T00:17:05.037Z,97.59
2018-02-16T00:18:05.031Z,97.48
2018-02-16T00:19:05.066Z,97.8
2018-02-16T00:20:05.034Z,97.86
2018-02-16T00:21:05.030Z,97.81
2018-02-16T00:22:05.192Z,97.73
2018-02-16T00:23:05.045Z,97.94
2018-02-16T00:24:05.230Z,98.03
2018-02-16T00:25:05.195Z,98.27
2018-02-16T00:26:05.050Z,98.45
2018-02-16T00:27:05.061Z,98.09
2018-02-16T00:28:05.064Z,97.96
2018-02-16T00:29:05.070Z,98.18
2018-02-16T00:30:05.090Z,98.35
2018-02-16T00:31:05.073Z,98.47
2018-02-16T00:32:05.087Z,98.3
2018-02-16T00:33:05.256Z,98.27
2018-02-16T00:34:05.102Z,98.23
2018-02-16T00:35:05.097Z,98.33
2018-02-16T00:36:05.094Z,98.41
2018-02-16T00:37:05.115Z,98.29
2018-02-16T00:38:05.104Z,98.14
2018-02-16T00:39:05.096Z,97.99
2018-02-16T00:40:05.103Z,98.06
2018-02-16T00:41:05.254Z,98.3
2018-02-16T00:42:05.486Z,98.18
2018-02-16T00:43:05.102Z,98.02
2018-02-16T00:44:05.117Z,98.29
2018-02-16T00:45:05.129Z,98.23
2018-02-16T00:46:05.124Z,98.3
2018-02-16T00:47:05.150Z,98.35
2018-02-16T00:48:05.149Z,98.84
2018-02-16T00:49:05.125Z,98.58
2018-02-16T00:50:05.138Z,99.27
2018-02-16T00:51:05.133Z,99.49
2018-02-16T00:52:05.185Z,99.5
2018-02-16T00:53:05.141Z,99.43
2018-02-16T00:54:05.151Z,99.47
2018-02-16T00:55:05.150Z,99.45
2018-02-16T00:56:05.149Z,99.5
2018-02-16T00:57:05.190Z,99.46
2018-02-16T00:58:05.156Z,99.26
2018-02-16T00:59:05.156Z,99.01
2018-02-16T01:00:05.170Z,98.92
2018-02-16T01:01:05.171Z,99.21
2018-02-16T01:02:05.197Z,99.42
2018-02-16T01:03:05.188Z,99.51
2018-02-16T01:04:05.199Z,99.54
2018-02-16T01:05:05.221Z,99.56
2018-02-16T01:06:05.209Z,99.59
2018-02-16T01:07:05.182Z,99.58
2018-02-16T01:08:05.188Z,99.39
2018-02-16T01:09:05.207Z,99.31
2018-02-16T01:10:05.206Z,99.23
2018-02-16T01:11:05.191Z,99.23
2018-02-16T01:12:05.364Z,99.3
2018-02-16T01:13:05.358Z,99.33
2018-02-16T01:14:05.360Z,99.52
2018-02-16T01:15:05.383Z,99.43
2018-02-16T01:16:05.217Z,99.3
2018-02-16T01:17:05.369Z,99.5
2018-02-16T01:18:05.386Z,99.44
2018-02-16T01:19:05.386Z,99.41
2018-02-16T01:20:05.408Z,99.2
2018-02-16T01:21:05.390Z,99.43
2018-02-16T01:22:05.395Z,99.56
2018-02-16T01:23:05.225Z,99.49
2018-02-16T01:24:05.391Z,99.43
2018-02-16T01:25:05.657Z,99.31
2018-02-16T01:26:05.409Z,99.19
2018-02-16T01:27:05.423Z,99.25
2018-02-16T01:28:05.306Z,99.09
2018-02-16T01:29:05.263Z,98.94
2018-02-16T01:30:05.847Z,99.07
2018-02-16T01:31:05.445Z,99.32
2018-02-16T01:32:05.432Z,99.34
2018-02-16T01:33:05.441Z,99.37
2018-02-16T01:34:05.441Z,99.21
2018-02-16T01:35:05.287Z,99.51
2018-02-16T01:36:05.459Z,99.38
2018-02-16T01:37:05.295Z,99.46
2018-02-16T01:38:05.300Z,99.64
2018-02-16T01:39:05.308Z,99.71
2018-02-16T01:40:05.300Z,99.68
2018-02-16T01:41:05.491Z,99.65
2018-02-16T01:42:05.310Z,99.7
2018-02-16T01:43:05.305Z,99.78
2018-02-16T01:44:05.481Z,99.79
2018-02-16T01:45:05.319Z,99.83
2018-02-16T01:46:05.702Z,99.76
2018-02-16T01:47:05.326Z,99.73
2018-02-16T01:48:05.331Z,99.75
2018-02-16T01:49:05.330Z,99.68
2018-02-16T01:50:05.328Z,99.75
2018-02-16T01:51:05.385Z,99.82
2018-02-16T01:52:05.667Z,99.81
2018-02-16T01:53:05.352Z,99.84
2018-02-16T01:54:05.371Z,99.8
2018-02-16T01:55:05.372Z,99.83
2018-02-16T01:56:05.377Z,99.82
2018-02-16T01:57:05.408Z,99.73
2018-02-16T01:58:05.418Z,99.58
2018-02-16T01:59:05.390Z,99.48
2018-02-16T02:00:05.405Z,99.54
2018-02-16T02:01:05.561Z,99.5
2018-02-16T02:02:05.417Z,99.44
2018-02-16T02:03:05.429Z,99.73
2018-02-16T02:04:05.424Z,99.85
2018-02-16T02:05:05.412Z,99.88
2018-02-16T02:06:05.424Z,99.8
2018-02-16T02:07:05.428Z,99.59
2018-02-16T02:08:05.944Z,99.59
2018-02-16T02:09:05.442Z,99.57
2018-02-16T02:10:05.435Z,99.46
2018-02-16T02:11:05.444Z,99.35
2018-02-16T02:12:05.475Z,99.35
2018-02-16T02:13:05.489Z,99.57
2018-02-16T02:14:05.463Z,99.78
2018-02-16T02:15:05.463Z,99.84
2018-02-16T02:16:05.457Z,99.82
2018-02-16T02:17:05.473Z,99.69
2018-02-16T02:18:05.449Z,99.52
2018-02-16T02:19:05.477Z,99.4
2018-02-16T02:20:05.464Z,99.24
2018-02-16T02:21:05.532Z,99.26
2018-02-16T02:22:05.481Z,99.1
2018-02-16T02:23:05.484Z,98.94
2018-02-16T02:24:05.641Z,98.87
2018-02-16T02:25:05.636Z,98.78
2018-02-16T02:26:05.656Z,98.78
2018-02-16T02:27:05.650Z,98.71
2018-02-16T02:28:05.650Z,98.66
2018-02-16T02:29:05.673Z,98.88
2018-02-16T02:30:05.668Z,98.82
2018-02-16T02:31:05.687Z,98.91
2018-02-16T02:32:05.525Z,98.93
2018-02-16T02:33:05.693Z,98.8
2018-02-16T02:34:05.711Z,98.76
2018-02-16T02:35:05.708Z,98.77
2018-02-16T02:36:05.704Z,98.86
2018-02-16T02:37:05.541Z,98.73
2018-02-16T02:38:05.711Z,98.52
2018-02-16T02:39:05.707Z,98.3
2018-02-16T02:40:05.729Z,98.18
2018-02-16T02:41:05.572Z,98.08
2018-02-16T02:42:05.716Z,98.02
2018-02-16T02:43:05.610Z,98.09
2018-02-16T02:44:05.576Z,98.1
2018-02-16T02:45:05.604Z,98.25
2018-02-16T02:46:05.592Z,98.52
2018-02-16T02:47:05.794Z,98.47
2018-02-16T02:48:05.604Z,98.7
2018-02-16T02:49:05.610Z,98.64
2018-02-16T02:50:05.603Z,98.5
2018-02-16T02:51:05.597Z,98.69
2018-02-16T02:52:05.655Z,98.69
2018-02-16T02:53:05.601Z,98.43
2018-02-16T02:54:05.612Z,98.49
2018-02-16T02:55:05.646Z,98.57
2018-02-16T02:56:05.621Z,98.47
2018-02-16T02:57:05.607Z,98.32
2018-02-16T02:58:05.612Z,98.6
2018-02-16T02:59:05.613Z,98.63
2018-02-16T03:00:05.648Z,98.36
2018-02-16T03:01:05.819Z,98.36
2018-02-16T03:02:05.670Z,98.62
2018-02-16T03:03:05.636Z,98.77
2018-02-16T03:04:05.648Z,98.75
2018-02-16T03:05:05.718Z,98.75
2018-02-16T03:06:05.698Z,98.57
2018-02-16T03:07:05.656Z,98.56
2018-02-16T03:08:05.696Z,98.5
2018-02-16T03:09:05.717Z,98.67
2018-02-16T03:10:05.713Z,98.96
2018-02-16T03:11:05.694Z,99.05
2018-02-16T03:12:05.707Z,98.91
2018-02-16T03:13:05.703Z,98.75
2018-02-16T03:14:05.685Z,98.51
2018-02-16T03:15:05.688Z,98.58
2018-02-16T03:16:05.707Z,98.62
2018-02-16T03:17:05.739Z,98.54
2018-02-16T03:18:05.686Z,98.54
2018-02-16T03:19:05.686Z,98.61
2018-02-16T03:20:05.696Z,98.6
2018-02-16T03:21:05.884Z,98.5
2018-02-16T03:22:05.760Z,98.32
2018-02-16T03:23:05.713Z,98.27
2018-02-16T03:24:05.717Z,98.23
2018-02-16T03:25:05.883Z,98.25
2018-02-16T03:26:06.252Z,98.41
2018-02-16T03:27:05.712Z,98.55
2018-02-16T03:28:05.761Z,98.57
2018-02-16T03:29:05.762Z,98.53
2018-02-16T03:30:05.788Z,98.48
2018-02-16T03:31:05.918Z,98.51
2018-02-16T03:32:05.873Z,98.44
2018-02-16T03:33:05.868Z,98.26
2018-02-16T03:34:05.875Z,98.59
2018-02-16T03:35:05.712Z,98.51
2018-02-16T03:36:05.871Z,98.32
2018-02-16T03:37:06.188Z,98.32
2018-02-16T03:38:05.877Z,98.33
2018-02-16T03:39:05.721Z,98.46
2018-02-16T03:40:05.941Z,98.41
2018-02-16T03:41:05.918Z,98.36
2018-02-16T03:42:05.923Z,98.33
2018-02-16T03:43:05.901Z,98.37
2018-02-16T03:44:05.749Z,98.35
2018-02-16T03:45:05.912Z,98.33
2018-02-16T03:46:05.753Z,98.28
2018-02-16T03:47:05.753Z,98.4
2018-02-16T03:48:05.758Z,98.2
2018-02-16T03:49:05.778Z,98.37
2018-02-16T03:50:05.771Z,98.32
2018-02-16T03:51:05.867Z,98.3
2018-02-16T03:52:05.786Z,98.44
2018-02-16T03:53:05.776Z,98.3
2018-02-16T03:54:05.786Z,98.36
2018-02-16T03:55:05.791Z,98.36
2018-02-16T03:56:05.987Z,98.36
2018-02-16T03:57:05.808Z,98.63
2018-02-16T03:58:05.966Z,98.71
2018-02-16T03:59:05.985Z,98.52
2018-02-16T04:00:05.808Z,98.76
2018-02-16T04:01:06.006Z,98.88
2018-02-16T04:02:05.854Z,98.86
2018-02-16T04:03:05.847Z,98.79
2018-02-16T04:04:05.991Z,98.76
2018-02-16T04:05:05.835Z,98.86
2018-02-16T04:06:05.871Z,98.88
2018-02-16T04:07:06.010Z,98.88
2018-02-16T04:08:06.020Z,98.75
2018-02-16T04:09:06.006Z,98.5
2018-02-16T04:10:05.882Z,98.34
2018-02-16T04:11:05.899Z,98.38
2018-02-16T04:12:05.879Z,98.32
2018-02-16T04:13:05.872Z,98.39
2018-02-16T04:14:05.875Z,98.36
2018-02-16T04:15:05.875Z,98.29
2018-02-16T04:16:05.906Z,98.15
2018-02-16T04:17:05.896Z,98.1
2018-02-16T04:18:05.894Z,98.43
2018-02-16T04:19:05.910Z,98.83
2018-02-16T04:20:05.917Z,99.03
2018-02-16T04:21:05.915Z,99.03
2018-02-16T04:22:05.998Z,99.11
2018-02-16T04:23:05.924Z,99.13
2018-02-16T04:24:05.909Z,98.95
2018-02-16T04:25:05.916Z,98.77
2018-02-16T04:26:05.916Z,98.7
2018-02-16T04:27:05.939Z,98.85
2018-02-16T04:28:05.956Z,98.83
2018-02-16T04:29:05.933Z,98.64
2018-02-16T04:30:05.942Z,98.64
2018-02-16T04:31:05.946Z,98.63
2018-02-16T04:32:05.968Z,98.63
2018-02-16T04:33:05.979Z,98.57
2018-02-16T04:34:06.259Z,98.43
2018-02-16T04:35:05.960Z,98.39
2018-02-16T04:36:05.959Z,98.28
2018-02-16T04:37:05.981Z,98.21
2018-02-16T04:38:05.955Z,98.36
2018-02-16T04:39:05.976Z,98.62
2018-02-16T04:40:05.994Z,98.49
2018-02-16T04:41:05.974Z,98.37
2018-02-16T04:42:05.977Z,98.18
2018-02-16T04:43:05.984Z,98.1
2018-02-16T04:44:05.997Z,97.91
2018-02-16T04:45:06.345Z,97.97
2018-02-16T04:46:05.998Z,98.15
2018-02-16T04:47:06.208Z,98.03
2018-02-16T04:48:06.166Z,98.08
2018-02-16T04:49:06.173Z,98.27
2018-02-16T04:50:06.196Z,98.35
2018-02-16T04:51:06.060Z,98.26
2018-02-16T04:52:06.018Z,98.74
2018-02-16T04:53:06.188Z,99.01
2018-02-16T04:54:06.033Z,99.16
2018-02-16T04:55:06.191Z,99.04
2018-02-16T04:56:06.068Z,98.76
2018-02-16T04:57:06.222Z,98.71
2018-02-16T04:58:06.048Z,98.75
2018-02-16T04:59:06.195Z,98.76
2018-02-16T05:00:06.206Z,98.8
2018-02-16T05:01:06.210Z,98.48
2018-02-16T05:02:06.208Z,98.31
2018-02-16T05:03:06.075Z,98.17
2018-02-16T05:04:06.068Z,98.09
2018-02-16T05:05:06.083Z,98.1
2018-02-16T05:06:06.074Z,98.03
2018-02-16T05:07:06.266Z,98.04
2018-02-16T05:08:06.078Z,98.1
2018-02-16T05:09:06.093Z,98.05
2018-02-16T05:10:06.241Z,98.02
2018-02-16T05:11:06.086Z,98.09
2018-02-16T05:12:06.284Z,98.41
2018-02-16T05:13:06.237Z,98.41
2018-02-16T05:14:06.253Z,98.11
2018-02-16T05:15:06.242Z,98.09
2018-02-16T05:16:06.089Z,97.99
2018-02-16T05:17:06.131Z,97.95
2018-02-16T05:18:06.553Z,97.94
2018-02-16T05:19:06.262Z,98.13
2018-02-16T05:20:06.135Z,98.26
2018-02-16T05:21:06.123Z,98.3
2018-02-16T05:22:06.122Z,98.3
2018-02-16T05:23:06.138Z,98.26
2018-02-16T05:24:06.486Z,98.26
2018-02-16T05:25:06.289Z,98.28
2018-02-16T05:26:06.127Z,98.28
2018-02-16T05:27:06.134Z,98.29
2018-02-16T05:28:06.134Z,98.29
2018-02-16T05:29:06.318Z,98.1
2018-02-16T05:30:06.154Z,98.18
2018-02-16T05:31:06.131Z,98.02
2018-02-16T05:32:06.186Z,97.96
2018-02-16T05:33:06.150Z,97.94
2018-02-16T05:34:06.301Z,98.22
2018-02-16T05:35:06.300Z,98.09
2018-02-16T05:36:06.262Z,98.12
2018-02-16T05:37:06.171Z,98.09
2018-02-16T05:38:06.152Z,98.51
2018-02-16T05:39:06.347Z,98.65
2018-02-16T05:40:06.142Z,98.61
2018-02-16T05:41:06.164Z,98.43
2018-02-16T05:42:06.333Z,98.37
2018-02-16T05:43:06.176Z,98.11
2018-02-16T05:44:06.211Z,98.25
2018-02-16T05:45:06.184Z,98.34
2018-02-16T05:46:06.172Z,98.18
2018-02-16T05:47:06.333Z,97.92
2018-02-16T05:48:06.337Z,97.86
2018-02-16T05:49:06.215Z,97.88
2018-02-16T05:50:06.371Z,98.2
2018-02-16T05:51:06.342Z,98.17
2018-02-16T05:52:06.179Z,97.97
2018-02-16T05:53:06.345Z,98.02
2018-02-16T05:54:06.346Z,98.31
2018-02-16T05:55:06.372Z,98.63
2018-02-16T05:56:06.242Z,98.52
2018-02-16T05:57:06.374Z,98.43
2018-02-16T05:58:06.369Z,98.3
2018-02-16T05:59:06.371Z,98.11
2018-02-16T06:00:06.372Z,98.14
2018-02-16T06:01:06.407Z,97.92
2018-02-16T06:02:06.496Z,97.77
2018-02-16T06:03:06.218Z,97.75
2018-02-16T06:04:06.399Z,97.87
2018-02-16T06:05:06.388Z,97.87
2018-02-16T06:06:06.242Z,97.88
2018-02-16T06:07:06.426Z,97.82
2018-02-16T06:08:06.257Z,97.75
2018-02-16T06:09:06.410Z,97.68
2018-02-16T06:10:06.399Z,97.6
2018-02-16T06:11:06.397Z,97.58
2018-02-16T06:12:06.391Z,97.87
2018-02-16T06:13:06.426Z,97.94
2018-02-16T06:14:06.394Z,97.86
2018-02-16T06:15:06.271Z,97.66
2018-02-16T06:16:06.258Z,97.6
2018-02-16T06:17:06.444Z,97.5
2018-02-16T06:18:06.419Z,97.43
2018-02-16T06:19:06.278Z,97.4
2018-02-16T06:20:06.296Z,97.36
2018-02-16T06:21:06.445Z,97.35
2018-02-16T06:22:06.427Z,97.5
2018-02-16T06:23:06.486Z,97.47
2018-02-16T06:24:06.286Z,97.46
2018-02-16T06:25:06.443Z,97.29
2018-02-16T06:26:06.347Z,97.26
2018-02-16T06:27:06.326Z,97.19
2018-02-16T06:28:06.487Z,97.17
2018-02-16T06:29:06.346Z,97.11
2018-02-16T06:30:06.310Z,97.19
2018-02-16T06:31:06.514Z,97.19
2018-02-16T06:32:06.303Z,97.09
2018-02-16T06:33:06.484Z,97.1
2018-02-16T06:34:06.322Z,97.13
2018-02-16T06:35:06.324Z,97.11
2018-02-16T06:36:06.366Z,97.01
2018-02-16T06:37:06.372Z,96.9
2018-02-16T06:38:06.330Z,96.78
2018-02-16T06:39:06.334Z,96.79
2018-02-16T06:40:06.370Z,96.7
2018-02-16T06:41:06.400Z,96.64
2018-02-16T06:42:06.340Z,96.59
2018-02-16T06:43:06.348Z,96.62
2018-02-16T06:44:06.344Z,96.62
2018-02-16T06:45:06.351Z,96.66
2018-02-16T06:46:06.411Z,96.62
2018-02-16T06:47:06.361Z,96.54
2018-02-16T06:48:06.522Z,96.53
2018-02-16T06:49:06.373Z,96.67
2018-02-16T06:50:06.379Z,96.7
2018-02-16T06:51:06.440Z,96.74
2018-02-16T06:52:06.405Z,96.78
2018-02-16T06:53:06.406Z,96.87
2018-02-16T06:54:06.411Z,97.07
2018-02-16T06:55:06.416Z,97.13
2018-02-16T06:56:06.436Z,97.36
2018-02-16T06:57:06.538Z,97.59
2018-02-16T06:58:06.432Z,97.51
2018-02-16T06:59:06.433Z,97.57
2018-02-16T07:00:06.426Z,97.72
2018-02-16T07:01:06.612Z,97.77
2018-02-16T07:02:06.455Z,97.81
2018-02-16T07:03:06.632Z,97.89
2018-02-16T07:04:06.629Z,98.06
2018-02-16T07:05:06.614Z,98.05
2018-02-16T07:06:06.485Z,97.98
2018-02-16T07:07:06.454Z,98.1
2018-02-16T07:08:06.631Z,98.1
2018-02-16T07:09:06.472Z,97.92
2018-02-16T07:10:07.177Z,97.62
2018-02-16T07:11:06.773Z,97.48
2018-02-16T07:12:07.011Z,97.35
2018-02-16T07:13:06.640Z,97.64
2018-02-16T07:14:06.643Z,97.87
2018-02-16T07:15:06.681Z,97.89
2018-02-16T07:16:06.657Z,97.94
2018-02-16T07:17:06.681Z,97.73
2018-02-16T07:18:06.793Z,97.87
2018-02-16T07:19:06.673Z,97.62
2018-02-16T07:20:06.743Z,97.38
2018-02-16T07:21:06.687Z,97.28
2018-02-16T07:22:06.660Z,97.18
2018-02-16T07:23:07.372Z,97.12
2018-02-16T07:24:06.691Z,97.22
2018-02-16T07:25:06.705Z,97.45
2018-02-16T07:26:06.720Z,97.79
2018-02-16T07:27:06.586Z,97.73
2018-02-16T07:28:06.570Z,97.78
2018-02-16T07:29:06.738Z,97.73
2018-02-16T07:30:06.700Z,97.54
2018-02-16T07:31:06.701Z,97.34
2018-02-16T07:32:06.560Z,97.35
2018-02-16T07:33:06.592Z,97.39
2018-02-16T07:34:06.719Z,97.67
2018-02-16T07:35:06.576Z,97.44
2018-02-16T07:36:06.729Z,97.44
2018-02-16T07:37:06.608Z,97.6
2018-02-16T07:38:06.627Z,97.65
2018-02-16T07:39:06.750Z,97.38
2018-02-16T07:40:06.742Z,97.83
2018-02-16T07:41:06.605Z,97.68
2018-02-16T07:42:06.772Z,97.89
2018-02-16T07:43:06.803Z,98.09
2018-02-16T07:44:06.631Z,98.08
2018-02-16T07:45:06.593Z,98.23
2018-02-16T07:46:06.769Z,98.16
2018-02-16T07:47:06.844Z,98.32
2018-02-16T07:48:06.612Z,98.41
2018-02-16T07:49:06.791Z,98.15
2018-02-16T07:50:06.617Z,98.27
2018-02-16T07:51:06.664Z,98.36
2018-02-16T07:52:06.620Z,98.32
2018-02-16T07:53:06.784Z,98.67
2018-02-16T07:54:06.661Z,98.65
2018-02-16T07:55:06.634Z,98.85
2018-02-16T07:56:06.793Z,98.77
2018-02-16T07:57:06.793Z,98.49
2018-02-16T07:58:06.642Z,98.75
2018-02-16T07:59:06.845Z,98.85
2018-02-16T08:00:06.798Z,98.48
2018-02-16T08:01:06.642Z,98.65
2018-02-16T08:02:06.634Z,98.28
2018-02-16T08:03:06.652Z,98.23
2018-02-16T08:04:06.649Z,98.36
2018-02-16T08:05:06.656Z,98.16
2018-02-16T08:06:06.675Z,98.16
2018-02-16T08:07:06.656Z,98.63
2018-02-16T08:08:06.652Z,98.29
2018-02-16T08:09:06.835Z,98.63
2018-02-16T08:10:06.824Z,98.25
2018-02-16T08:11:06.662Z,98.37
2018-02-16T08:12:06.855Z,98.24
2018-02-16T08:13:06.670Z,98.4
2018-02-16T08:14:06.705Z,98.58
2018-02-16T08:15:06.873Z,99.14
2018-02-16T08:16:06.699Z,98.73
2018-02-16T08:17:06.700Z,98.92
2018-02-16T08:18:06.696Z,98.74
2018-02-16T08:19:06.697Z,98.6
2018-02-16T08:20:06.739Z,98.68
2018-02-16T08:21:06.866Z,98.76
2018-02-16T08:22:06.861Z,98.98
2018-02-16T08:23:06.905Z,98.74
2018-02-16T08:24:06.868Z,98.94
2018-02-16T08:25:06.907Z,98.78
2018-02-16T08:26:06.732Z,99.02
2018-02-16T08:27:06.962Z,98.82
2018-02-16T08:28:06.899Z,98.86
2018-02-16T08:29:06.908Z,98.83
2018-02-16T08:30:06.996Z,98.9
2018-02-16T08:31:06.761Z,98.88
2018-02-16T08:32:06.790Z,98.81
2018-02-16T08:33:06.761Z,98.9
2018-02-16T08:34:06.766Z,98.84
2018-02-16T08:35:06.930Z,98.86
2018-02-16T08:36:06.776Z,98.83
2018-02-16T08:37:06.781Z,98.8
2018-02-16T08:38:06.951Z,98.61
2018-02-16T08:39:06.780Z,98.88
2018-02-16T08:40:06.774Z,98.83
2018-02-16T08:41:06.777Z,98.91
2018-02-16T08:42:06.788Z,99.35
2018-02-16T08:43:06.807Z,99.41
2018-02-16T08:44:06.793Z,99.29
2018-02-16T08:45:06.944Z,99.35
2018-02-16T08:46:06.948Z,99.33
2018-02-16T08:47:06.798Z,99.22
2018-02-16T08:48:06.993Z,99.13
2018-02-16T08:49:06.975Z,99.11
2018-02-16T08:50:06.989Z,99.1
2018-02-16T08:51:06.813Z,99.19
2018-02-16T08:52:06.994Z,99.28
2018-02-16T08:53:06.993Z,99.27
2018-02-16T08:54:06.984Z,99.16
2018-02-16T08:55:06.988Z,99.15
2018-02-16T08:56:07.111Z,98.82
2018-02-16T08:57:06.941Z,98.92
2018-02-16T08:58:07.179Z,98.85
2018-02-16T08:59:07.219Z,98.83
2018-02-16T09:00:06.852Z,98.8
2018-02-16T09:01:07.012Z,98.51
2018-02-16T09:02:06.897Z,98.41
2018-02-16T09:03:06.876Z,98.37
2018-02-16T09:04:06.849Z,98.35
2018-02-16T09:05:06.851Z,98.51
2018-02-16T09:06:09.913Z,98.57
2018-02-16T09:07:06.859Z,98.83
2018-02-16T09:08:06.885Z,99.34
2018-02-16T09:09:06.878Z,99.28
2018-02-16T09:10:06.955Z,99.04
2018-02-16T09:11:06.913Z,99.1
2018-02-16T09:12:07.827Z,99.15
2018-02-16T09:13:06.894Z,99.12
2018-02-16T09:14:06.880Z,99.16
2018-02-16T09:15:06.892Z,99.04
2018-02-16T09:16:06.892Z,99.07
2018-02-16T09:17:06.896Z,99.01
2018-02-16T09:18:06.925Z,99.1
2018-02-16T09:19:06.893Z,98.97
2018-02-16T09:20:07.857Z,98.93
2018-02-16T09:21:06.896Z,98.85
2018-02-16T09:22:06.893Z,98.72
2018-02-16T09:23:08.096Z,98.83
2018-02-16T09:24:06.906Z,98.99
2018-02-16T09:25:06.921Z,98.76
2018-02-16T09:26:06.929Z,98.76
2018-02-16T09:27:06.914Z,98.55
2018-02-16T09:28:06.952Z,98.43
2018-02-16T09:29:06.931Z,98.29
2018-02-16T09:30:06.932Z,98.56
2018-02-16T09:31:06.930Z,98.69
2018-02-16T09:32:08.056Z,98.69
2018-02-16T09:33:07.254Z,98.45
2018-02-16T09:34:07.102Z,98.87
2018-02-16T09:35:07.109Z,98.8
2018-02-16T09:36:07.105Z,98.48
2018-02-16T09:37:07.104Z,98.41
2018-02-16T09:38:07.128Z,98.71
2018-02-16T09:39:07.111Z,98.67
2018-02-16T09:40:07.109Z,98.66
2018-02-16T09:41:07.023Z,98.57
2018-02-16T09:42:07.131Z,98.64
2018-02-16T09:43:07.154Z,98.53
2018-02-16T09:44:07.159Z,98.52
2018-02-16T09:45:06.974Z,98.63
2018-02-16T09:46:06.984Z,98.88
2018-02-16T09:47:06.993Z,98.59
2018-02-16T09:48:07.028Z,98.6
2018-02-16T09:49:06.992Z,98.73
2018-02-16T09:50:06.999Z,98.37
2018-02-16T09:51:07.008Z,98.06
2018-02-16T09:52:07.012Z,97.92
2018-02-16T09:53:07.050Z,97.89
2018-02-16T09:54:07.020Z,97.4
2018-02-16T09:55:07.022Z,97.21
2018-02-16T09:56:07.029Z,97.51
2018-02-16T09:57:07.043Z,96.82
2018-02-16T09:58:07.043Z,96.71
2018-02-16T09:59:07.049Z,96.52
2018-02-16T10:00:07.036Z,96.62
2018-02-16T10:01:07.054Z,96.69
2018-02-16T10:02:07.041Z,96.73
2018-02-16T10:03:07.048Z,96.74
2018-02-16T10:04:07.070Z,96.61
2018-02-16T10:05:07.060Z,96.61
2018-02-16T10:06:07.068Z,96.25
2018-02-16T10:07:07.115Z,96.36
2018-02-16T10:08:07.067Z,96.44
2018-02-16T10:09:07.110Z,96.27
2018-02-16T10:10:07.111Z,96.09
2018-02-16T10:11:07.089Z,95.93
2018-02-16T10:12:07.087Z,96.32
2018-02-16T10:13:07.108Z,96.31
2018-02-16T10:14:07.124Z,96
2018-02-16T10:15:07.092Z,95.78
2018-02-16T10:16:07.099Z,95.72
2018-02-16T10:17:07.135Z,95.9
2018-02-16T10:18:07.138Z,95.34
2018-02-16T10:19:07.118Z,95.44
2018-02-16T10:20:07.144Z,95.27
2018-02-16T10:21:07.135Z,94.72
2018-02-16T10:22:07.143Z,94.63
2018-02-16T10:23:07.135Z,94.52
2018-02-16T10:24:07.256Z,94.87
2018-02-16T10:25:07.168Z,94.53
2018-02-16T10:26:07.136Z,94.75
2018-02-16T10:27:07.145Z,94.54
2018-02-16T10:28:07.175Z,94.65
2018-02-16T10:29:07.184Z,94.91
2018-02-16T10:30:07.188Z,94.91
2018-02-16T10:31:07.169Z,94.56
2018-02-16T10:32:07.173Z,93.86
2018-02-16T10:33:07.202Z,92.6
2018-02-16T10:34:07.230Z,92.56
2018-02-16T10:35:07.236Z,92.82
2018-02-16T10:36:07.212Z,93.74
2018-02-16T10:37:07.209Z,93.56
2018-02-16T10:38:07.202Z,93.27
2018-02-16T10:39:07.223Z,92.01
2018-02-16T10:40:07.250Z,92.3
2018-02-16T10:41:07.222Z,91.78
2018-02-16T10:42:07.279Z,91.81
2018-02-16T10:43:07.222Z,92.15
2018-02-16T10:44:07.241Z,90.6
2018-02-16T10:45:07.392Z,90.91
2018-02-16T10:46:07.384Z,91.73
2018-02-16T10:47:07.386Z,92.12
2018-02-16T10:48:07.413Z,93.11
2018-02-16T10:49:07.401Z,92.72
2018-02-16T10:50:07.411Z,93.24
2018-02-16T10:51:07.259Z,93.1
2018-02-16T10:52:07.266Z,92.8
2018-02-16T10:53:07.273Z,92.71
2018-02-16T10:54:07.425Z,92.55
2018-02-16T10:55:07.283Z,92.5
2018-02-16T10:56:07.307Z,91.76
2018-02-16T10:57:07.270Z,92.44
2018-02-16T10:58:07.286Z,92.37
2018-02-16T10:59:07.277Z,92.14
2018-02-16T11:00:07.475Z,91.16
2018-02-16T11:01:07.296Z,91.13
2018-02-16T11:02:07.489Z,91.2
2018-02-16T11:03:07.314Z,91.54
2018-02-16T11:04:07.479Z,91.26
2018-02-16T11:05:07.310Z,91.49
2018-02-16T11:06:07.479Z,90.37
2018-02-16T11:07:07.359Z,89.64
2018-02-16T11:08:07.297Z,90.08
2018-02-16T11:09:07.371Z,90.68
2018-02-16T11:10:07.317Z,90.34
2018-02-16T11:11:07.338Z,90.69
2018-02-16T11:12:07.336Z,90.94
2018-02-16T11:13:07.399Z,90.55
2018-02-16T11:14:07.338Z,90.62
2018-02-16T11:15:07.336Z,91.04
2018-02-16T11:16:07.332Z,90.95
2018-02-16T11:17:07.323Z,90.3
2018-02-16T11:18:07.357Z,90
2018-02-16T11:19:07.488Z,89.76
2018-02-16T11:20:07.349Z,89.35
2018-02-16T11:21:07.365Z,90.43
2018-02-16T11:22:07.358Z,90.2
2018-02-16T11:23:07.350Z,90.86
2018-02-16T11:24:07.361Z,90.73
2018-02-16T11:25:07.357Z,90.5
2018-02-16T11:26:07.368Z,90.08
2018-02-16T11:27:07.382Z,90.13
2018-02-16T11:28:07.396Z,89.92
2018-02-16T11:29:07.372Z,90.21
2018-02-16T11:30:07.402Z,89.19
2018-02-16T11:31:07.400Z,88.43
2018-02-16T11:32:07.379Z,88.2
2018-02-16T11:33:07.391Z,88.22
2018-02-16T11:34:07.484Z,88.6
2018-02-16T11:35:07.404Z,88.72
2018-02-16T11:36:07.539Z,88.35
2018-02-16T11:37:07.390Z,88.6
2018-02-16T11:38:07.398Z,88.46
2018-02-16T11:39:07.620Z,88.24
2018-02-16T11:40:07.413Z,86.87
2018-02-16T11:41:07.428Z,87.26
2018-02-16T11:42:07.447Z,86.14
2018-02-16T11:43:07.562Z,85.67
2018-02-16T11:44:07.590Z,86.92
2018-02-16T11:45:07.430Z,87.08
2018-02-16T11:46:07.424Z,86.63
2018-02-16T11:47:07.426Z,85.26
2018-02-16T11:48:07.613Z,84.93
2018-02-16T11:49:07.620Z,85.04
2018-02-16T11:50:07.441Z,85.52
2018-02-16T11:51:07.593Z,84.89
2018-02-16T11:52:07.472Z,86.14
2018-02-16T11:53:07.448Z,83.82
2018-02-16T11:54:07.504Z,84.31
2018-02-16T11:55:07.463Z,83.9
2018-02-16T11:56:07.462Z,81.27
2018-02-16T11:57:07.629Z,81.09
2018-02-16T11:58:07.672Z,82.86
2018-02-16T11:59:07.676Z,82.64
2018-02-16T12:00:07.647Z,83.07
2018-02-16T12:01:07.679Z,82
2018-02-16T12:02:07.501Z,82.64
2018-02-16T12:03:07.666Z,82.27
2018-02-16T12:04:07.496Z,83
2018-02-16T12:05:07.528Z,82.99
2018-02-16T12:06:07.519Z,83.04
2018-02-16T12:07:07.674Z,84.43
2018-02-16T12:08:07.514Z,80.61
2018-02-16T12:09:07.607Z,82.02
2018-02-16T12:10:07.526Z,80.12
2018-02-16T12:11:07.519Z,79.66
2018-02-16T12:12:07.523Z,79.2
2018-02-16T12:13:07.680Z,80.03
2018-02-16T12:14:07.539Z,78.75
2018-02-16T12:15:07.559Z,78.05
2018-02-16T12:16:07.550Z,78.16
2018-02-16T12:17:07.558Z,78.69
2018-02-16T12:18:07.550Z,79.87
2018-02-16T12:19:07.603Z,81.16
2018-02-16T12:20:14.569Z,80.28
2018-02-16T12:21:07.613Z,78.4
2018-02-16T12:22:07.724Z,78.84
2018-02-16T12:23:07.716Z,75.45
2018-02-16T12:24:07.566Z,77.06
2018-02-16T12:25:07.578Z,75.37
2018-02-16T12:26:07.827Z,74.13
2018-02-16T12:27:07.571Z,76.12
2018-02-16T12:28:07.558Z,76.33
2018-02-16T12:29:07.567Z,75.14
2018-02-16T12:30:07.589Z,77.16
2018-02-16T12:31:07.581Z,75.49
2018-02-16T12:32:07.573Z,74.55
2018-02-16T12:33:07.593Z,75.34
2018-02-16T12:34:07.576Z,74.92
2018-02-16T12:35:07.733Z,73.75
2018-02-16T12:36:07.613Z,76.1
2018-02-16T12:37:07.585Z,73.51
2018-02-16T12:38:07.575Z,71.58
2018-02-16T12:39:07.604Z,72.23
2018-02-16T12:40:07.761Z,74.32
2018-02-16T12:41:07.601Z,72.87
2018-02-16T12:42:07.642Z,75.16
2018-02-16T12:43:07.624Z,73.55
2018-02-16T12:44:07.630Z,73.8
2018-02-16T12:45:07.638Z,71.98
2018-02-16T12:46:07.780Z,73.6
2018-02-16T12:47:07.656Z,72.85
2018-02-16T12:48:07.645Z,73.79
2018-02-16T12:49:07.629Z,73.03
2018-02-16T12:50:07.664Z,73.62
2018-02-16T12:51:07.659Z,74.84
2018-02-16T12:52:07.686Z,72.69
2018-02-16T12:53:07.675Z,73.14
2018-02-16T12:54:07.697Z,73.47
2018-02-16T12:55:07.671Z,74.24